sensor_id;sensor_type;location;lat;lon;timestamp;temperature;humidity
11934;DHT22;6026;48.784;9.198;2022-08-19T00:01:47;21.60;99.90
11934;DHT22;6026;48.784;9.198;2022-08-19T00:04:15;21.60;99.90
11934;DHT22;6026;48.784;9.198;2022-08-19T00:06:42;21.60;99.90
11934;DHT22;6026;48.784;9.198;2022-08-19T00:09:10;21.60;99.90
11934;DHT22;6026;48.784;9.198;2022-08-19T00:11:37;21.60;99.90
11934;DHT22;6026;48.784;9.198;2022-08-19T00:14:04;21.60;99.90
11934;DHT22;6026;48.784;9.198;2022-08-19T00:16:30;21.50;99.90
11934;DHT22;6026;48.784;9.198;2022-08-19T00:18:56;21.50;99.90
11934;DHT22;6026;48.784;9.198;2022-08-19T00:21:23;21.50;99.90
11934;DHT22;6026;48.784;9.198;2022-08-19T00:23:49;21.50;99.90
11934;DHT22;6026;48.784;9.198;2022-08-19T00:26:15;21.50;99.90
11934;DHT22;6026;48.784;9.198;2022-08-19T00:28:41;21.50;99.90
11934;DHT22;6026;48.784;9.198;2022-08-19T00:31:07;21.50;99.90
11934;DHT22;6026;48.784;9.198;2022-08-19T00:33:34;21.50;99.90
11934;DHT22;6026;48.784;9.198;2022-08-19T00:36:01;21.50;99.90
11934;DHT22;6026;48.784;9.198;2022-08-19T00:38:26;21.40;99.90
11934;DHT22;6026;48.784;9.198;2022-08-19T00:40:53;21.40;99.90
11934;DHT22;6026;48.784;9.198;2022-08-19T00:43:21;21.40;99.90
11934;DHT22;6026;48.784;9.198;2022-08-19T00:45:47;21.40;99.90
11934;DHT22;6026;48.784;9.198;2022-08-19T00:48:13;21.40;99.90
11934;DHT22;6026;48.784;9.198;2022-08-19T00:50:40;21.40;99.90
11934;DHT22;6026;48.784;9.198;2022-08-19T00:53:09;21.30;99.90
11934;DHT22;6026;48.784;9.198;2022-08-19T00:55:37;21.30;99.90
11934;DHT22;6026;48.784;9.198;2022-08-19T00:58:07;21.30;99.90
11934;DHT22;6026;48.784;9.198;2022-08-19T01:00:32;21.30;99.90
11934;DHT22;6026;48.784;9.198;2022-08-19T01:03:03;21.30;99.90
11934;DHT22;6026;48.784;9.198;2022-08-19T01:05:29;21.30;99.90
11934;DHT22;6026;48.784;9.198;2022-08-19T01:07:56;21.30;99.90
11934;DHT22;6026;48.784;9.198;2022-08-19T01:10:26;21.30;99.90
11934;DHT22;6026;48.784;9.198;2022-08-19T01:12:54;21.30;99.90
11934;DHT22;6026;48.784;9.198;2022-08-19T01:15:24;21.20;99.90
11934;DHT22;6026;48.784;9.198;2022-08-19T01:17:53;21.30;99.90
11934;DHT22;6026;48.784;9.198;2022-08-19T01:20:22;21.20;99.90
11934;DHT22;6026;48.784;9.198;2022-08-19T01:22:51;21.20;99.90
11934;DHT22;6026;48.784;9.198;2022-08-19T01:25:20;21.20;99.90
11934;DHT22;6026;48.784;9.198;2022-08-19T01:27:49;21.20;99.90
11934;DHT22;6026;48.784;9.198;2022-08-19T01:30:20;21.20;99.90
11934;DHT22;6026;48.784;9.198;2022-08-19T01:32:48;21.20;99.90
11934;DHT22;6026;48.784;9.198;2022-08-19T01:35:14;21.20;99.90
11934;DHT22;6026;48.784;9.198;2022-08-19T01:37:48;21.20;99.90
11934;DHT22;6026;48.784;9.198;2022-08-19T01:40:15;21.10;99.90
11934;DHT22;6026;48.784;9.198;2022-08-19T01:42:41;21.20;99.90
11934;DHT22;6026;48.784;9.198;2022-08-19T01:45:08;21.10;99.90
11934;DHT22;6026;48.784;9.198;2022-08-19T01:47:36;21.20;99.90
11934;DHT22;6026;48.784;9.198;2022-08-19T01:50:03;21.10;99.90
11934;DHT22;6026;48.784;9.198;2022-08-19T01:52:29;21.10;99.90
11934;DHT22;6026;48.784;9.198;2022-08-19T01:54:54;21.10;99.90
11934;DHT22;6026;48.784;9.198;2022-08-19T01:57:20;21.10;99.90
11934;DHT22;6026;48.784;9.198;2022-08-19T01:59:46;21.10;99.90
11934;DHT22;6026;48.784;9.198;2022-08-19T02:02:11;21.10;99.90
11934;DHT22;6026;48.784;9.198;2022-08-19T02:04:38;21.10;99.90
11934;DHT22;6026;48.784;9.198;2022-08-19T02:07:04;21.10;99.90
11934;DHT22;6026;48.784;9.198;2022-08-19T02:09:31;21.10;99.90
11934;DHT22;6026;48.784;9.198;2022-08-19T02:11:57;21.10;99.90
11934;DHT22;6026;48.784;9.198;2022-08-19T02:14:22;21.00;99.90
11934;DHT22;6026;48.784;9.198;2022-08-19T02:16:48;21.00;99.90
11934;DHT22;6026;48.784;9.198;2022-08-19T02:19:14;21.00;99.90
11934;DHT22;6026;48.784;9.198;2022-08-19T02:21:39;21.00;99.90
11934;DHT22;6026;48.784;9.198;2022-08-19T02:24:05;20.90;99.90
11934;DHT22;6026;48.784;9.198;2022-08-19T02:26:31;20.90;99.90
11934;DHT22;6026;48.784;9.198;2022-08-19T02:28:57;20.90;99.90
11934;DHT22;6026;48.784;9.198;2022-08-19T02:31:24;20.90;99.90
11934;DHT22;6026;48.784;9.198;2022-08-19T02:33:50;20.90;99.90
11934;DHT22;6026;48.784;9.198;2022-08-19T02:36:17;20.90;99.90
11934;DHT22;6026;48.784;9.198;2022-08-19T02:38:44;20.90;99.90
11934;DHT22;6026;48.784;9.198;2022-08-19T02:41:20;20.90;99.90
11934;DHT22;6026;48.784;9.198;2022-08-19T02:43:47;20.80;99.90
11934;DHT22;6026;48.784;9.198;2022-08-19T02:48:38;20.80;99.90
11934;DHT22;6026;48.784;9.198;2022-08-19T02:51:04;20.80;99.90
11934;DHT22;6026;48.784;9.198;2022-08-19T02:53:30;20.80;99.90
11934;DHT22;6026;48.784;9.198;2022-08-19T02:55:56;20.70;99.90
11934;DHT22;6026;48.784;9.198;2022-08-19T02:58:23;20.70;99.90
11934;DHT22;6026;48.784;9.198;2022-08-19T03:00:55;20.70;99.90
11934;DHT22;6026;48.784;9.198;2022-08-19T03:03:20;20.70;99.90
11934;DHT22;6026;48.784;9.198;2022-08-19T03:05:47;20.70;99.90
11934;DHT22;6026;48.784;9.198;2022-08-19T03:08:14;20.70;99.90
11934;DHT22;6026;48.784;9.198;2022-08-19T03:10:44;20.60;99.90
11934;DHT22;6026;48.784;9.198;2022-08-19T03:13:14;20.50;99.90
11934;DHT22;6026;48.784;9.198;2022-08-19T03:15:45;20.50;99.90
11934;DHT22;6026;48.784;9.198;2022-08-19T03:18:11;20.50;99.90
11934;DHT22;6026;48.784;9.198;2022-08-19T03:20:49;20.50;99.90
11934;DHT22;6026;48.784;9.198;2022-08-19T03:23:16;20.50;99.90
11934;DHT22;6026;48.784;9.198;2022-08-19T03:25:44;20.50;99.90
11934;DHT22;6026;48.784;9.198;2022-08-19T03:28:11;20.40;99.90
11934;DHT22;6026;48.784;9.198;2022-08-19T03:30:38;20.40;99.90
11934;DHT22;6026;48.784;9.198;2022-08-19T03:33:06;20.40;99.90
11934;DHT22;6026;48.784;9.198;2022-08-19T03:35:31;20.40;99.90
11934;DHT22;6026;48.784;9.198;2022-08-19T03:37:58;20.40;99.90
11934;DHT22;6026;48.784;9.198;2022-08-19T03:40:25;20.40;99.90
11934;DHT22;6026;48.784;9.198;2022-08-19T03:42:50;20.40;99.90
11934;DHT22;6026;48.784;9.198;2022-08-19T03:45:16;20.40;99.90
11934;DHT22;6026;48.784;9.198;2022-08-19T03:47:42;20.30;99.90
11934;DHT22;6026;48.784;9.198;2022-08-19T03:50:07;20.30;99.90
11934;DHT22;6026;48.784;9.198;2022-08-19T03:52:34;20.30;99.90
11934;DHT22;6026;48.784;9.198;2022-08-19T03:55:01;20.30;99.90
11934;DHT22;6026;48.784;9.198;2022-08-19T03:57:27;20.30;99.90
11934;DHT22;6026;48.784;9.198;2022-08-19T03:59:53;20.20;99.90
11934;DHT22;6026;48.784;9.198;2022-08-19T04:02:19;20.20;99.90
11934;DHT22;6026;48.784;9.198;2022-08-19T04:04:45;20.20;99.90
11934;DHT22;6026;48.784;9.198;2022-08-19T04:07:12;20.30;99.90
11934;DHT22;6026;48.784;9.198;2022-08-19T04:09:40;20.20;99.90
11934;DHT22;6026;48.784;9.198;2022-08-19T04:12:07;20.20;99.90
11934;DHT22;6026;48.784;9.198;2022-08-19T04:14:33;20.20;99.90
11934;DHT22;6026;48.784;9.198;2022-08-19T04:17:00;20.20;99.90
11934;DHT22;6026;48.784;9.198;2022-08-19T04:19:29;20.20;99.90
11934;DHT22;6026;48.784;9.198;2022-08-19T04:21:54;20.20;99.90
11934;DHT22;6026;48.784;9.198;2022-08-19T04:24:21;20.20;99.90
11934;DHT22;6026;48.784;9.198;2022-08-19T04:26:48;20.10;99.90
11934;DHT22;6026;48.784;9.198;2022-08-19T04:29:17;20.10;99.90
11934;DHT22;6026;48.784;9.198;2022-08-19T04:31:45;20.10;99.90
11934;DHT22;6026;48.784;9.198;2022-08-19T04:34:13;20.10;99.90
11934;DHT22;6026;48.784;9.198;2022-08-19T04:36:41;20.10;99.90
11934;DHT22;6026;48.784;9.198;2022-08-19T04:39:10;20.10;99.90
11934;DHT22;6026;48.784;9.198;2022-08-19T04:41:36;20.10;99.90
11934;DHT22;6026;48.784;9.198;2022-08-19T04:44:21;20.10;99.90
11934;DHT22;6026;48.784;9.198;2022-08-19T04:46:48;20.10;99.90
11934;DHT22;6026;48.784;9.198;2022-08-19T04:49:15;20.10;99.90
11934;DHT22;6026;48.784;9.198;2022-08-19T04:51:43;20.10;99.90
11934;DHT22;6026;48.784;9.198;2022-08-19T04:54:09;20.10;99.90
11934;DHT22;6026;48.784;9.198;2022-08-19T04:56:34;20.10;99.90
11934;DHT22;6026;48.784;9.198;2022-08-19T04:59:00;20.10;99.90
11934;DHT22;6026;48.784;9.198;2022-08-19T05:01:30;20.10;99.90
11934;DHT22;6026;48.784;9.198;2022-08-19T05:03:58;20.10;99.90
11934;DHT22;6026;48.784;9.198;2022-08-19T05:06:25;20.10;99.90
11934;DHT22;6026;48.784;9.198;2022-08-19T05:08:51;20.10;99.90
11934;DHT22;6026;48.784;9.198;2022-08-19T05:11:25;20.10;99.90
11934;DHT22;6026;48.784;9.198;2022-08-19T05:13:52;20.10;99.90
11934;DHT22;6026;48.784;9.198;2022-08-19T05:16:20;20.10;99.90
11934;DHT22;6026;48.784;9.198;2022-08-19T05:18:47;20.10;99.90
11934;DHT22;6026;48.784;9.198;2022-08-19T05:21:31;20.10;99.90
11934;DHT22;6026;48.784;9.198;2022-08-19T05:24:16;20.20;99.90
11934;DHT22;6026;48.784;9.198;2022-08-19T05:26:44;20.20;99.90
11934;DHT22;6026;48.784;9.198;2022-08-19T05:29:16;20.10;99.90
11934;DHT22;6026;48.784;9.198;2022-08-19T05:31:43;20.20;99.90
11934;DHT22;6026;48.784;9.198;2022-08-19T05:34:09;20.20;99.90
11934;DHT22;6026;48.784;9.198;2022-08-19T05:36:38;20.20;99.90
11934;DHT22;6026;48.784;9.198;2022-08-19T05:39:09;20.20;99.90
11934;DHT22;6026;48.784;9.198;2022-08-19T05:41:35;20.20;99.90
11934;DHT22;6026;48.784;9.198;2022-08-19T05:44:04;20.20;99.90
11934;DHT22;6026;48.784;9.198;2022-08-19T05:46:31;20.20;99.90
11934;DHT22;6026;48.784;9.198;2022-08-19T05:48:57;20.20;99.90
11934;DHT22;6026;48.784;9.198;2022-08-19T05:51:24;20.20;99.90
11934;DHT22;6026;48.784;9.198;2022-08-19T05:53:50;20.20;99.90
11934;DHT22;6026;48.784;9.198;2022-08-19T05:56:17;20.20;99.90
11934;DHT22;6026;48.784;9.198;2022-08-19T05:58:44;20.20;99.90
11934;DHT22;6026;48.784;9.198;2022-08-19T06:01:14;20.20;99.90
11934;DHT22;6026;48.784;9.198;2022-08-19T06:03:40;20.20;99.90
11934;DHT22;6026;48.784;9.198;2022-08-19T06:06:07;20.20;99.90
11934;DHT22;6026;48.784;9.198;2022-08-19T06:08:34;20.30;99.90
11934;DHT22;6026;48.784;9.198;2022-08-19T06:11:34;20.20;99.90
11934;DHT22;6026;48.784;9.198;2022-08-19T06:14:03;20.30;99.90
11934;DHT22;6026;48.784;9.198;2022-08-19T06:16:29;20.20;99.90
11934;DHT22;6026;48.784;9.198;2022-08-19T06:18:59;20.30;99.90
11934;DHT22;6026;48.784;9.198;2022-08-19T06:21:28;20.30;99.90
11934;DHT22;6026;48.784;9.198;2022-08-19T06:23:54;20.30;99.90
11934;DHT22;6026;48.784;9.198;2022-08-19T06:26:21;20.30;99.90
11934;DHT22;6026;48.784;9.198;2022-08-19T06:28:47;20.30;99.90
11934;DHT22;6026;48.784;9.198;2022-08-19T06:31:19;20.30;99.90
11934;DHT22;6026;48.784;9.198;2022-08-19T06:33:46;20.30;99.90
11934;DHT22;6026;48.784;9.198;2022-08-19T06:36:27;20.30;99.90
11934;DHT22;6026;48.784;9.198;2022-08-19T06:38:58;20.30;99.90
11934;DHT22;6026;48.784;9.198;2022-08-19T06:41:26;20.10;99.90
11934;DHT22;6026;48.784;9.198;2022-08-19T06:43:53;20.00;99.90
11934;DHT22;6026;48.784;9.198;2022-08-19T06:46:19;20.00;99.90
11934;DHT22;6026;48.784;9.198;2022-08-19T06:48:46;19.90;99.90
11934;DHT22;6026;48.784;9.198;2022-08-19T06:51:16;19.80;99.90
11934;DHT22;6026;48.784;9.198;2022-08-19T06:53:45;19.70;99.90
11934;DHT22;6026;48.784;9.198;2022-08-19T06:56:17;19.70;99.90
11934;DHT22;6026;48.784;9.198;2022-08-19T06:58:43;19.70;99.90
11934;DHT22;6026;48.784;9.198;2022-08-19T07:01:09;19.70;99.90
11934;DHT22;6026;48.784;9.198;2022-08-19T07:03:37;19.70;99.90
11934;DHT22;6026;48.784;9.198;2022-08-19T07:06:06;19.70;99.90
11934;DHT22;6026;48.784;9.198;2022-08-19T07:08:33;19.70;99.90
11934;DHT22;6026;48.784;9.198;2022-08-19T07:11:05;19.70;99.90
11934;DHT22;6026;48.784;9.198;2022-08-19T07:13:32;19.70;99.90
11934;DHT22;6026;48.784;9.198;2022-08-19T07:16:02;19.80;99.90
11934;DHT22;6026;48.784;9.198;2022-08-19T07:18:27;19.90;99.90
11934;DHT22;6026;48.784;9.198;2022-08-19T07:21:05;19.90;99.90
11934;DHT22;6026;48.784;9.198;2022-08-19T07:23:31;19.90;99.90
11934;DHT22;6026;48.784;9.198;2022-08-19T07:25:57;19.90;99.90
11934;DHT22;6026;48.784;9.198;2022-08-19T07:28:23;19.90;99.90
11934;DHT22;6026;48.784;9.198;2022-08-19T07:30:49;19.90;99.90
11934;DHT22;6026;48.784;9.198;2022-08-19T07:33:16;20.00;99.90
11934;DHT22;6026;48.784;9.198;2022-08-19T07:35:42;20.00;99.90
11934;DHT22;6026;48.784;9.198;2022-08-19T07:38:09;20.00;99.90
11934;DHT22;6026;48.784;9.198;2022-08-19T07:40:35;19.90;99.90
11934;DHT22;6026;48.784;9.198;2022-08-19T07:43:01;20.00;99.90
11934;DHT22;6026;48.784;9.198;2022-08-19T07:45:26;20.00;99.90
11934;DHT22;6026;48.784;9.198;2022-08-19T07:47:53;20.00;99.90
11934;DHT22;6026;48.784;9.198;2022-08-19T07:50:20;20.00;99.90
11934;DHT22;6026;48.784;9.198;2022-08-19T07:52:46;20.00;99.90
11934;DHT22;6026;48.784;9.198;2022-08-19T07:55:12;20.00;99.90
11934;DHT22;6026;48.784;9.198;2022-08-19T07:57:37;20.00;99.90
11934;DHT22;6026;48.784;9.198;2022-08-19T08:00:05;20.00;99.90
11934;DHT22;6026;48.784;9.198;2022-08-19T08:02:31;20.00;99.90
11934;DHT22;6026;48.784;9.198;2022-08-19T08:04:56;20.00;99.90
11934;DHT22;6026;48.784;9.198;2022-08-19T08:07:40;19.90;99.90
11934;DHT22;6026;48.784;9.198;2022-08-19T08:10:24;19.90;99.90
11934;DHT22;6026;48.784;9.198;2022-08-19T08:12:51;19.80;99.90
11934;DHT22;6026;48.784;9.198;2022-08-19T08:15:17;19.60;99.90
11934;DHT22;6026;48.784;9.198;2022-08-19T08:17:44;19.50;99.90
11934;DHT22;6026;48.784;9.198;2022-08-19T08:20:10;19.40;99.90
11934;DHT22;6026;48.784;9.198;2022-08-19T08:22:35;19.30;99.90
11934;DHT22;6026;48.784;9.198;2022-08-19T08:25:22;19.20;99.90
11934;DHT22;6026;48.784;9.198;2022-08-19T08:27:49;19.10;99.90
11934;DHT22;6026;48.784;9.198;2022-08-19T08:30:20;19.00;99.90
11934;DHT22;6026;48.784;9.198;2022-08-19T08:32:47;18.90;99.90
11934;DHT22;6026;48.784;9.198;2022-08-19T08:35:15;18.90;99.90
11934;DHT22;6026;48.784;9.198;2022-08-19T08:37:42;18.80;99.90
11934;DHT22;6026;48.784;9.198;2022-08-19T08:40:44;18.80;99.90
11934;DHT22;6026;48.784;9.198;2022-08-19T08:46:08;18.70;99.90
11934;DHT22;6026;48.784;9.198;2022-08-19T08:48:43;18.80;99.90
11934;DHT22;6026;48.784;9.198;2022-08-19T08:51:16;18.70;99.90
11934;DHT22;6026;48.784;9.198;2022-08-19T08:53:44;18.70;99.90
11934;DHT22;6026;48.784;9.198;2022-08-19T08:56:12;18.70;99.90
11934;DHT22;6026;48.784;9.198;2022-08-19T08:58:54;18.80;99.90
11934;DHT22;6026;48.784;9.198;2022-08-19T09:01:21;18.80;99.90
11934;DHT22;6026;48.784;9.198;2022-08-19T09:03:48;18.90;99.90
11934;DHT22;6026;48.784;9.198;2022-08-19T09:06:44;19.00;99.90
11934;DHT22;6026;48.784;9.198;2022-08-19T09:09:21;19.10;99.90
11934;DHT22;6026;48.784;9.198;2022-08-19T09:12:06;19.10;99.90
11934;DHT22;6026;48.784;9.198;2022-08-19T09:14:55;19.20;99.90
11934;DHT22;6026;48.784;9.198;2022-08-19T09:17:27;19.30;99.90
11934;DHT22;6026;48.784;9.198;2022-08-19T09:20:03;19.40;99.90
11934;DHT22;6026;48.784;9.198;2022-08-19T09:22:33;19.50;99.90
11934;DHT22;6026;48.784;9.198;2022-08-19T09:24:58;19.50;99.90
11934;DHT22;6026;48.784;9.198;2022-08-19T09:27:25;19.50;99.90
11934;DHT22;6026;48.784;9.198;2022-08-19T09:29:52;19.50;99.90
11934;DHT22;6026;48.784;9.198;2022-08-19T09:32:20;19.60;99.90
11934;DHT22;6026;48.784;9.198;2022-08-19T09:34:45;19.60;99.90
11934;DHT22;6026;48.784;9.198;2022-08-19T09:37:11;19.70;99.90
11934;DHT22;6026;48.784;9.198;2022-08-19T09:39:38;19.70;99.90
11934;DHT22;6026;48.784;9.198;2022-08-19T09:42:03;19.80;99.90
11934;DHT22;6026;48.784;9.198;2022-08-19T09:44:30;19.80;99.90
11934;DHT22;6026;48.784;9.198;2022-08-19T09:46:56;19.90;99.90
11934;DHT22;6026;48.784;9.198;2022-08-19T09:49:21;19.90;99.90
11934;DHT22;6026;48.784;9.198;2022-08-19T09:51:53;20.00;99.90
11934;DHT22;6026;48.784;9.198;2022-08-19T09:54:21;20.00;99.90
11934;DHT22;6026;48.784;9.198;2022-08-19T09:56:47;20.10;99.90
11934;DHT22;6026;48.784;9.198;2022-08-19T09:59:13;20.20;99.90
11934;DHT22;6026;48.784;9.198;2022-08-19T10:01:39;20.20;99.90
11934;DHT22;6026;48.784;9.198;2022-08-19T10:04:05;20.20;99.90
11934;DHT22;6026;48.784;9.198;2022-08-19T10:06:35;20.30;99.90
11934;DHT22;6026;48.784;9.198;2022-08-19T10:09:02;20.30;99.90
11934;DHT22;6026;48.784;9.198;2022-08-19T10:11:30;20.40;99.90
11934;DHT22;6026;48.784;9.198;2022-08-19T10:13:56;20.40;99.90
11934;DHT22;6026;48.784;9.198;2022-08-19T10:16:23;20.50;99.90
11934;DHT22;6026;48.784;9.198;2022-08-19T10:18:49;20.50;99.90
11934;DHT22;6026;48.784;9.198;2022-08-19T10:21:21;20.60;99.90
11934;DHT22;6026;48.784;9.198;2022-08-19T10:23:49;20.50;99.90
11934;DHT22;6026;48.784;9.198;2022-08-19T10:26:27;20.60;99.90
11934;DHT22;6026;48.784;9.198;2022-08-19T10:28:54;20.60;99.90
11934;DHT22;6026;48.784;9.198;2022-08-19T10:31:27;20.60;99.90
11934;DHT22;6026;48.784;9.198;2022-08-19T10:33:54;20.60;99.90
11934;DHT22;6026;48.784;9.198;2022-08-19T10:36:25;20.60;99.90
11934;DHT22;6026;48.784;9.198;2022-08-19T10:38:52;20.60;99.90
11934;DHT22;6026;48.784;9.198;2022-08-19T10:41:20;20.60;99.90
11934;DHT22;6026;48.784;9.198;2022-08-19T10:43:50;20.60;99.90
11934;DHT22;6026;48.784;9.198;2022-08-19T10:46:18;20.60;99.90
11934;DHT22;6026;48.784;9.198;2022-08-19T10:48:44;20.70;99.90
11934;DHT22;6026;48.784;9.198;2022-08-19T10:51:11;20.80;99.90
11934;DHT22;6026;48.784;9.198;2022-08-19T10:53:56;20.90;99.90
11934;DHT22;6026;48.784;9.198;2022-08-19T10:56:22;21.10;99.90
11934;DHT22;6026;48.784;9.198;2022-08-19T10:59:06;21.20;99.90
11934;DHT22;6026;48.784;9.198;2022-08-19T11:01:33;21.20;99.90
11934;DHT22;6026;48.784;9.198;2022-08-19T11:04:03;21.30;99.90
11934;DHT22;6026;48.784;9.198;2022-08-19T11:06:31;21.30;99.90
11934;DHT22;6026;48.784;9.198;2022-08-19T11:08:58;21.30;99.90
11934;DHT22;6026;48.784;9.198;2022-08-19T11:11:25;21.30;99.90
11934;DHT22;6026;48.784;9.198;2022-08-19T11:13:51;21.40;99.90
11934;DHT22;6026;48.784;9.198;2022-08-19T11:16:20;21.30;99.90
11934;DHT22;6026;48.784;9.198;2022-08-19T11:18:53;21.40;99.90
11934;DHT22;6026;48.784;9.198;2022-08-19T11:21:22;21.40;99.90
11934;DHT22;6026;48.784;9.198;2022-08-19T11:23:51;21.40;99.90
11934;DHT22;6026;48.784;9.198;2022-08-19T11:26:18;21.50;99.90
11934;DHT22;6026;48.784;9.198;2022-08-19T11:28:44;21.60;99.90
11934;DHT22;6026;48.784;9.198;2022-08-19T11:31:12;21.60;99.90
11934;DHT22;6026;48.784;9.198;2022-08-19T11:33:38;21.60;99.90
11934;DHT22;6026;48.784;9.198;2022-08-19T11:36:04;21.70;99.90
11934;DHT22;6026;48.784;9.198;2022-08-19T11:38:30;21.80;99.90
11934;DHT22;6026;48.784;9.198;2022-08-19T11:41:00;21.80;99.90
11934;DHT22;6026;48.784;9.198;2022-08-19T11:43:27;21.90;99.90
11934;DHT22;6026;48.784;9.198;2022-08-19T11:45:54;21.90;99.90
11934;DHT22;6026;48.784;9.198;2022-08-19T11:48:21;22.00;99.90
11934;DHT22;6026;48.784;9.198;2022-08-19T11:50:48;22.00;99.90
11934;DHT22;6026;48.784;9.198;2022-08-19T11:53:14;22.10;99.90
11934;DHT22;6026;48.784;9.198;2022-08-19T11:55:40;22.10;99.90
11934;DHT22;6026;48.784;9.198;2022-08-19T11:58:06;22.20;99.90
11934;DHT22;6026;48.784;9.198;2022-08-19T12:00:34;22.20;99.90
11934;DHT22;6026;48.784;9.198;2022-08-19T12:03:01;22.20;99.90
11934;DHT22;6026;48.784;9.198;2022-08-19T12:05:27;22.20;99.90
11934;DHT22;6026;48.784;9.198;2022-08-19T12:07:52;22.20;99.90
11934;DHT22;6026;48.784;9.198;2022-08-19T12:10:20;22.30;99.90
11934;DHT22;6026;48.784;9.198;2022-08-19T12:12:46;22.30;99.90
11934;DHT22;6026;48.784;9.198;2022-08-19T12:15:12;22.30;99.90
11934;DHT22;6026;48.784;9.198;2022-08-19T12:17:43;22.40;99.90
11934;DHT22;6026;48.784;9.198;2022-08-19T12:20:10;22.30;99.90
11934;DHT22;6026;48.784;9.198;2022-08-19T12:22:37;22.20;99.90
11934;DHT22;6026;48.784;9.198;2022-08-19T12:25:04;22.20;99.90
11934;DHT22;6026;48.784;9.198;2022-08-19T12:27:30;22.20;99.90
11934;DHT22;6026;48.784;9.198;2022-08-19T12:29:56;22.10;99.90
11934;DHT22;6026;48.784;9.198;2022-08-19T12:32:22;22.00;99.90
11934;DHT22;6026;48.784;9.198;2022-08-19T12:34:49;22.00;99.90
11934;DHT22;6026;48.784;9.198;2022-08-19T12:37:14;21.90;99.90
11934;DHT22;6026;48.784;9.198;2022-08-19T12:39:41;21.80;99.90
11934;DHT22;6026;48.784;9.198;2022-08-19T12:42:08;21.70;99.90
11934;DHT22;6026;48.784;9.198;2022-08-19T12:44:35;21.70;99.90
11934;DHT22;6026;48.784;9.198;2022-08-19T12:47:01;21.70;99.90
11934;DHT22;6026;48.784;9.198;2022-08-19T12:49:29;21.70;99.90
11934;DHT22;6026;48.784;9.198;2022-08-19T12:51:54;21.70;99.90
11934;DHT22;6026;48.784;9.198;2022-08-19T12:54:20;21.60;99.90
11934;DHT22;6026;48.784;9.198;2022-08-19T12:56:46;21.60;99.90
11934;DHT22;6026;48.784;9.198;2022-08-19T12:59:11;21.60;99.90
11934;DHT22;6026;48.784;9.198;2022-08-19T13:01:37;21.60;99.90
11934;DHT22;6026;48.784;9.198;2022-08-19T13:04:03;21.60;99.90
11934;DHT22;6026;48.784;9.198;2022-08-19T13:06:29;21.60;99.90
11934;DHT22;6026;48.784;9.198;2022-08-19T13:08:55;21.60;99.90
11934;DHT22;6026;48.784;9.198;2022-08-19T13:11:22;21.60;99.90
11934;DHT22;6026;48.784;9.198;2022-08-19T13:13:50;21.60;99.90
11934;DHT22;6026;48.784;9.198;2022-08-19T13:16:17;21.60;99.90
11934;DHT22;6026;48.784;9.198;2022-08-19T13:18:45;21.70;99.90
11934;DHT22;6026;48.784;9.198;2022-08-19T13:21:18;21.70;99.90
11934;DHT22;6026;48.784;9.198;2022-08-19T13:23:45;21.60;99.90
11934;DHT22;6026;48.784;9.198;2022-08-19T13:26:11;21.40;99.90
11934;DHT22;6026;48.784;9.198;2022-08-19T13:28:38;21.30;99.90
11934;DHT22;6026;48.784;9.198;2022-08-19T13:31:24;21.20;99.90
11934;DHT22;6026;48.784;9.198;2022-08-19T13:34:09;21.30;99.90
11934;DHT22;6026;48.784;9.198;2022-08-19T13:36:35;21.20;99.90
11934;DHT22;6026;48.784;9.198;2022-08-19T13:39:01;21.10;99.90
11934;DHT22;6026;48.784;9.198;2022-08-19T13:41:27;21.10;99.90
11934;DHT22;6026;48.784;9.198;2022-08-19T13:43:53;21.10;99.90
11934;DHT22;6026;48.784;9.198;2022-08-19T13:46:19;21.10;99.90
11934;DHT22;6026;48.784;9.198;2022-08-19T13:48:46;21.00;99.90
11934;DHT22;6026;48.784;9.198;2022-08-19T13:51:14;21.00;99.90
11934;DHT22;6026;48.784;9.198;2022-08-19T13:53:41;21.00;99.90
11934;DHT22;6026;48.784;9.198;2022-08-19T13:56:15;20.90;99.90
11934;DHT22;6026;48.784;9.198;2022-08-19T13:58:41;20.80;99.90
11934;DHT22;6026;48.784;9.198;2022-08-19T14:01:07;20.50;99.90
11934;DHT22;6026;48.784;9.198;2022-08-19T14:03:34;20.40;99.90
11934;DHT22;6026;48.784;9.198;2022-08-19T14:05:59;20.20;99.90
11934;DHT22;6026;48.784;9.198;2022-08-19T14:08:25;20.10;99.90
11934;DHT22;6026;48.784;9.198;2022-08-19T14:10:53;20.00;99.90
11934;DHT22;6026;48.784;9.198;2022-08-19T14:13:20;19.90;99.90
11934;DHT22;6026;48.784;9.198;2022-08-19T14:15:47;19.90;99.90
11934;DHT22;6026;48.784;9.198;2022-08-19T14:18:14;19.80;99.90
11934;DHT22;6026;48.784;9.198;2022-08-19T14:20:39;19.80;99.90
11934;DHT22;6026;48.784;9.198;2022-08-19T14:23:05;19.80;99.90
11934;DHT22;6026;48.784;9.198;2022-08-19T14:25:31;19.80;99.90
11934;DHT22;6026;48.784;9.198;2022-08-19T14:27:58;19.70;99.90
11934;DHT22;6026;48.784;9.198;2022-08-19T14:30:32;19.80;99.90
11934;DHT22;6026;48.784;9.198;2022-08-19T14:33:00;19.80;99.90
11934;DHT22;6026;48.784;9.198;2022-08-19T14:35:28;19.90;99.90
11934;DHT22;6026;48.784;9.198;2022-08-19T14:37:54;19.90;99.90
11934;DHT22;6026;48.784;9.198;2022-08-19T14:40:22;20.00;99.90
11934;DHT22;6026;48.784;9.198;2022-08-19T14:42:52;20.10;99.90
11934;DHT22;6026;48.784;9.198;2022-08-19T14:45:17;20.20;99.90
11934;DHT22;6026;48.784;9.198;2022-08-19T14:47:43;20.30;99.90
11934;DHT22;6026;48.784;9.198;2022-08-19T14:50:10;20.40;99.90
11934;DHT22;6026;48.784;9.198;2022-08-19T14:52:36;20.50;99.90
11934;DHT22;6026;48.784;9.198;2022-08-19T14:55:03;20.50;99.90
11934;DHT22;6026;48.784;9.198;2022-08-19T14:57:29;20.60;99.90
11934;DHT22;6026;48.784;9.198;2022-08-19T14:59:55;20.70;99.90
11934;DHT22;6026;48.784;9.198;2022-08-19T15:02:21;20.70;99.90
11934;DHT22;6026;48.784;9.198;2022-08-19T15:04:47;20.80;99.90
11934;DHT22;6026;48.784;9.198;2022-08-19T15:07:12;20.80;99.90
11934;DHT22;6026;48.784;9.198;2022-08-19T15:09:38;20.90;99.90
11934;DHT22;6026;48.784;9.198;2022-08-19T15:12:04;20.90;99.90
11934;DHT22;6026;48.784;9.198;2022-08-19T15:14:30;21.00;99.90
11934;DHT22;6026;48.784;9.198;2022-08-19T15:16:58;21.10;99.90
11934;DHT22;6026;48.784;9.198;2022-08-19T15:19:24;21.20;99.90
11934;DHT22;6026;48.784;9.198;2022-08-19T15:21:50;21.40;99.90
11934;DHT22;6026;48.784;9.198;2022-08-19T15:24:25;21.50;99.90
11934;DHT22;6026;48.784;9.198;2022-08-19T15:26:52;21.70;99.90
11934;DHT22;6026;48.784;9.198;2022-08-19T15:29:18;21.80;99.90
11934;DHT22;6026;48.784;9.198;2022-08-19T15:31:44;21.90;99.90
11934;DHT22;6026;48.784;9.198;2022-08-19T15:34:10;22.10;99.90
11934;DHT22;6026;48.784;9.198;2022-08-19T15:36:36;22.10;99.90
11934;DHT22;6026;48.784;9.198;2022-08-19T15:39:03;22.20;99.90
11934;DHT22;6026;48.784;9.198;2022-08-19T15:41:30;22.30;99.90
11934;DHT22;6026;48.784;9.198;2022-08-19T15:43:59;22.20;99.90
11934;DHT22;6026;48.784;9.198;2022-08-19T15:46:27;22.10;99.90
11934;DHT22;6026;48.784;9.198;2022-08-19T15:48:54;22.20;99.90
11934;DHT22;6026;48.784;9.198;2022-08-19T15:51:52;22.00;99.90
11934;DHT22;6026;48.784;9.198;2022-08-19T15:54:20;22.10;99.90
11934;DHT22;6026;48.784;9.198;2022-08-19T15:56:47;22.20;99.90